Time;durP1;ratioP1;P1;durP2;ratioP2;P2;SDS_P1;SDS_P2;PMS_P1;PMS_P2;Temp;Humidity;BMP_temperature;BMP_pressure;BME280_temperature;BME280_humidity;BME280_pressure;Samples;Min_cycle;Max_cycle;Signal;HPM_P1;HPM_P2
2022/03/30 00:00:51;;;;;;;11.57;2.53;;;;;;;1.80;100.00;100319.75;5009866;28;20047;-79
2022/03/30 00:03:16;;;;;;;14.48;3.10;;;;;;;1.76;100.00;100315.69;5001726;28;20034;-78
2022/03/30 00:05:42;;;;;;;13.00;2.72;;;;;;;1.72;100.00;100317.72;5010371;28;20026;-78
2022/03/30 00:08:07;;;;;;;6.00;1.83;;;;;;;1.74;100.00;100322.88;5010206;28;20087;-79
2022/03/30 00:10:34;;;;;;;12.27;2.63;;;;;;;1.77;100.00;100327.88;5009619;28;20029;-79
2022/03/30 00:13:00;;;;;;;18.73;3.53;;;;;;;1.82;100.00;100320.47;5027732;28;20022;-77
2022/03/30 00:15:25;;;;;;;7.95;2.33;;;;;;;1.84;100.00;100329.09;5027683;28;20025;-79
2022/03/30 00:17:51;;;;;;;10.38;2.13;;;;;;;1.85;100.00;100321.09;5010567;28;20048;-78
2022/03/30 00:20:17;;;;;;;10.95;2.33;;;;;;;1.85;100.00;100322.88;5027277;28;20096;-78
2022/03/30 00:22:43;;;;;;;;;;;;;;;1.87;100.00;100323.59;5011103;28;20099;-79
2022/03/30 00:25:10;;;;;;;7.75;2.15;;;;;;;1.86;100.00;100325.41;4993630;28;20313;-78
2022/03/30 00:27:36;;;;;;;6.00;2.20;;;;;;;1.90;100.00;100333.91;5002232;28;20478;-79
2022/03/30 00:30:03;;;;;;;6.40;2.40;;;;;;;1.98;100.00;100331.50;4993420;28;20065;-78
2022/03/30 00:32:29;;;;;;;9.48;2.00;;;;;;;2.03;100.00;100342.53;5010546;28;20851;-78
2022/03/30 00:34:54;;;;;;;13.93;2.40;;;;;;;2.04;100.00;100336.31;5009988;28;20105;-82
2022/03/30 00:37:20;;;;;;;12.23;2.07;;;;;;;2.10;100.00;100330.56;5027706;28;20036;-77
2022/03/30 00:39:45;;;;;;;14.77;3.55;;;;;;;2.11;100.00;100320.91;5009649;28;20030;-79
2022/03/30 00:42:15;;;;;;;13.90;2.87;;;;;;;2.16;100.00;100333.72;4993816;28;20518;-78
2022/03/30 00:44:41;;;;;;;9.23;2.30;;;;;;;2.10;100.00;100320.03;5027535;28;20037;-78
2022/03/30 00:47:15;;;;;;;17.73;2.33;;;;;;;2.07;100.00;100319.44;5010784;28;20016;-78
2022/03/30 00:49:41;;;;;;;12.02;2.30;;;;;;;2.06;100.00;100318.63;5010518;28;20049;-78
2022/03/30 00:52:07;;;;;;;10.52;2.53;;;;;;;2.09;100.00;100317.53;5010366;28;20475;-78
2022/03/30 00:54:33;;;;;;;10.77;3.08;;;;;;;2.14;100.00;100309.28;5010811;28;20128;-79
2022/03/30 00:56:59;;;;;;;12.68;3.65;;;;;;;2.22;100.00;100312.13;5019108;28;20104;-78
2022/03/30 00:59:24;;;;;;;10.98;1.92;;;;;;;2.22;100.00;100302.44;5002184;28;20116;-77
2022/03/30 01:01:50;;;;;;;4.95;1.55;;;;;;;2.20;100.00;100311.41;5009496;28;20524;-78
2022/03/30 01:04:15;;;;;;;12.20;2.13;;;;;;;2.22;100.00;100298.97;5000846;28;20033;-79
2022/03/30 01:06:41;;;;;;;10.30;3.47;;;;;;;2.20;100.00;100290.34;5026660;28;20026;-79
2022/03/30 01:09:07;;;;;;;16.88;2.30;;;;;;;2.34;100.00;100305.91;5009214;28;20323;-79
2022/03/30 01:11:32;;;;;;;8.90;2.10;;;;;;;2.38;100.00;100302.09;4994923;28;20067;-79
2022/03/30 01:13:58;;;;;;;14.23;2.72;;;;;;;2.37;100.00;100291.69;5012929;28;20112;-79
2022/03/30 01:16:23;;;;;;;10.23;1.90;;;;;;;2.40;100.00;100294.91;4996570;28;20025;-78
2022/03/30 01:18:49;;;;;;;6.65;2.15;;;;;;;2.41;100.00;100285.19;5011999;28;20303;-78
2022/03/30 01:21:16;;;;;;;7.88;3.45;;;;;;;2.42;100.00;100286.88;5030049;28;20033;-80
2022/03/30 01:23:42;;;;;;;13.93;2.60;;;;;;;2.42;100.00;100285.09;5003966;28;20029;-79
2022/03/30 01:26:07;;;;;;;13.27;2.08;;;;;;;2.38;100.00;100280.19;5029974;28;20083;-79
2022/03/30 01:28:33;;;;;;;10.63;2.90;;;;;;;2.37;100.00;100279.34;5012096;28;20025;-78
2022/03/30 01:33:48;;;;;;;9.50;3.55;;;;;;;2.33;100.00;100272.63;5012132;28;20490;-78
2022/03/30 01:36:16;;;;;;;12.10;2.40;;;;;;;2.33;100.00;100268.19;5030091;28;20049;-77
2022/03/30 01:38:43;;;;;;;16.00;2.88;;;;;;;2.39;100.00;100271.28;5011498;28;20478;-79
2022/03/30 01:41:08;;;;;;;;;;;;;;;2.41;100.00;100270.25;5010013;28;20414;-79
2022/03/30 01:43:34;;;;;;;;;;;;;;;2.37;100.00;100260.06;5023159;28;19975;-79
2022/03/30 01:45:59;;;;;;;12.70;1.88;;;;;;;2.37;100.00;100258.25;5027667;28;19916;-79
2022/03/30 01:48:24;;;;;;;8.93;2.27;;;;;;;2.41;100.00;100249.16;4994659;28;20425;-78
2022/03/30 01:50:50;;;;;;;11.77;4.77;;;;;;;2.40;100.00;100247.47;5010114;28;20120;-79
2022/03/30 01:53:15;;;;;;;10.53;2.07;;;;;;;2.39;100.00;100250.22;5010935;28;20029;-78
2022/03/30 01:55:41;;;;;;;7.43;2.10;;;;;;;2.39;100.00;100243.19;5006617;28;20043;-78
2022/03/30 01:58:06;;;;;;;14.27;2.95;;;;;;;2.49;100.00;100251.19;4996170;28;20030;-78
2022/03/30 02:00:32;;;;;;;11.23;2.00;;;;;;;2.56;100.00;100256.81;5007549;28;20088;-78
2022/03/30 02:02:58;;;;;;;12.45;2.30;;;;;;;2.59;100.00;100256.56;5010718;28;20029;-78
2022/03/30 02:05:24;;;;;;;13.65;2.03;;;;;;;2.58;100.00;100250.44;5010624;28;20298;-78
2022/03/30 02:07:49;;;;;;;12.52;2.38;;;;;;;2.60;100.00;100252.94;5028626;28;20125;-76
2022/03/30 02:10:15;;;;;;;11.18;2.40;;;;;;;2.63;100.00;100242.16;4994622;28;20025;-77
2022/03/30 02:12:41;;;;;;;8.13;2.37;;;;;;;2.53;100.00;100236.81;5011556;28;20047;-77
2022/03/30 02:15:08;;;;;;;11.55;2.65;;;;;;;2.52;100.00;100233.31;5012188;28;20040;-77
2022/03/30 02:17:33;;;;;;;16.60;3.03;;;;;;;2.51;100.00;100238.72;5027600;28;20043;-77
2022/03/30 02:19:59;;;;;;;6.55;1.80;;;;;;;2.53;100.00;100235.00;4994883;28;20017;-78
2022/03/30 02:22:25;;;;;;;7.20;3.35;;;;;;;2.48;100.00;100221.38;5018530;28;20041;-78
2022/03/30 02:24:54;;;;;;;25.63;2.97;;;;;;;2.53;100.00;100229.72;5019501;28;20075;-76
2022/03/30 02:27:20;;;;;;;7.10;1.88;;;;;;;2.58;100.00;100231.16;5003390;28;20026;-76
2022/03/30 02:29:48;;;;;;;13.38;2.90;;;;;;;2.64;100.00;100228.84;5010994;28;20478;-76
2022/03/30 02:32:14;;;;;;;8.00;2.60;;;;;;;2.63;100.00;100231.63;4995085;28;20028;-77
2022/03/30 02:34:39;;;;;;;12.93;2.58;;;;;;;2.58;100.00;100221.47;5011128;28;20559;-79
2022/03/30 02:37:05;;;;;;;11.70;4.10;;;;;;;2.61;100.00;100220.38;4994956;28;20075;-78
2022/03/30 02:39:30;;;;;;;12.57;2.63;;;;;;;2.69;100.00;100231.97;5010752;28;20102;-77
2022/03/30 02:41:56;;;;;;;10.07;2.43;;;;;;;2.61;100.00;100201.91;5011195;28;20053;-78
2022/03/30 02:44:22;;;;;;;17.27;3.63;;;;;;;2.61;100.00;100223.00;5011176;28;20021;-78
2022/03/30 02:46:48;;;;;;;12.50;3.35;;;;;;;2.60;100.00;100222.19;5028676;28;20490;-77
2022/03/30 02:49:13;;;;;;;11.43;2.63;;;;;;;2.56;100.00;100212.84;5028544;28;20083;-77
2022/03/30 02:51:39;;;;;;;7.40;2.83;;;;;;;2.54;100.00;100215.59;5013207;28;20044;-77
2022/03/30 02:54:05;;;;;;;9.50;3.03;;;;;;;2.50;100.00;100216.78;5014105;28;20037;-77
2022/03/30 02:56:31;;;;;;;9.07;2.22;;;;;;;2.40;100.00;100210.59;4998091;28;20032;-76
2022/03/30 02:58:56;;;;;;;8.97;2.03;;;;;;;2.39;100.00;100214.19;5031679;28;20083;-78
2022/03/30 03:01:21;;;;;;;6.60;2.33;;;;;;;2.43;100.00;100225.31;5032263;28;20029;-78
2022/03/30 03:03:47;;;;;;;11.80;3.23;;;;;;;2.44;100.00;100224.38;5014405;28;20033;-77
2022/03/30 03:06:13;;;;;;;9.67;2.40;;;;;;;2.45;100.00;100223.41;4997727;28;20021;-76
2022/03/30 03:08:38;;;;;;;12.10;2.30;;;;;;;2.47;100.00;100222.31;5013498;28;20053;-78
2022/03/30 03:11:03;;;;;;;12.03;2.23;;;;;;;2.49;100.00;100219.56;5013933;28;20060;-79
2022/03/30 03:13:29;;;;;;;16.10;2.77;;;;;;;2.48;100.00;100218.72;5013953;28;20087;-80
2022/03/30 03:15:54;;;;;;;7.23;1.80;;;;;;;2.49;100.00;100223.03;5008558;28;20271;-80
2022/03/30 03:18:20;;;;;;;12.57;2.73;;;;;;;2.48;100.00;100200.28;5013445;28;20079;-79
2022/03/30 03:20:47;;;;;;;13.05;2.53;;;;;;;2.51;100.00;100202.66;5013351;28;20028;-79
2022/03/30 03:23:13;;;;;;;7.90;2.92;;;;;;;2.49;100.00;100199.31;4997032;28;20479;-78
2022/03/30 03:25:40;;;;;;;10.52;2.30;;;;;;;2.46;100.00;100190.84;5013158;28;20113;-78
2022/03/30 03:28:07;;;;;;;10.30;2.20;;;;;;;2.47;100.00;100190.69;5013845;28;20035;-79
2022/03/30 03:30:33;;;;;;;13.75;2.85;;;;;;;2.50;100.00;100190.44;5012879;28;20064;-78
2022/03/30 03:32:59;;;;;;;6.18;1.90;;;;;;;2.48;100.00;100180.97;5013646;28;20053;-78
2022/03/30 03:35:25;;;;;;;13.13;3.13;;;;;;;2.56;100.00;100194.38;4996236;28;20061;-79
2022/03/30 03:37:51;;;;;;;;;;;;;;;2.61;100.00;100197.47;4997655;28;20068;-78
2022/03/30 03:40:17;;;;;;;12.27;4.40;;;;;;;2.52;100.00;100183.25;5013203;28;20342;-79
2022/03/30 03:42:43;;;;;;;13.13;2.60;;;;;;;2.50;100.00;100182.53;5010889;28;20044;-78
2022/03/30 03:45:09;;;;;;;13.48;3.20;;;;;;;2.51;100.00;100193.94;5013677;28;20017;-79
2022/03/30 03:47:35;;;;;;;13.80;3.28;;;;;;;2.53;100.00;100190.19;5012892;28;20063;-79
2022/03/30 03:50:01;;;;;;;10.30;2.45;;;;;;;2.52;100.00;100201.69;5003578;28;20285;-79
2022/03/30 03:52:26;;;;;;;19.23;3.05;;;;;;;2.52;100.00;100188.50;5013096;28;20494;-78
2022/03/30 03:54:52;;;;;;;17.07;4.33;;;;;;;2.45;100.00;100194.41;5030503;28;20025;-78
2022/03/30 03:57:17;;;;;;;11.73;2.47;;;;;;;2.45;100.00;100204.94;4996820;28;20141;-79
2022/03/30 03:59:43;;;;;;;17.23;2.80;;;;;;;2.46;100.00;100204.00;5010086;28;20038;-79
2022/03/30 04:02:08;;;;;;;14.00;2.83;;;;;;;2.46;100.00;100202.19;4995900;28;20017;-78
2022/03/30 04:04:38;;;;;;;9.00;2.63;;;;;;;2.47;100.00;100201.22;5030261;28;20036;-79
2022/03/30 04:07:04;;;;;;;12.10;2.78;;;;;;;2.43;100.00;100194.53;5009110;28;20053;-78
2022/03/30 04:09:29;;;;;;;9.32;2.60;;;;;;;2.42;100.00;100192.88;5030605;28;20029;-79
2022/03/30 04:11:54;;;;;;;11.67;2.60;;;;;;;2.46;100.00;100199.56;5012695;28;20032;-79
2022/03/30 04:14:20;;;;;;;8.63;2.53;;;;;;;2.45;100.00;100194.41;5012800;28;20033;-80
2022/03/30 04:16:46;;;;;;;12.70;3.03;;;;;;;2.49;100.00;100198.47;5005935;28;20048;-79
2022/03/30 04:19:12;;;;;;;9.60;3.67;;;;;;;2.41;100.00;100196.47;4990683;28;20030;-80
2022/03/30 04:21:37;;;;;;;13.35;4.22;;;;;;;2.40;100.00;100191.31;5007423;28;20099;-79
2022/03/30 04:24:03;;;;;;;7.50;2.83;;;;;;;2.40;100.00;100188.69;5010970;28;20375;-79
2022/03/30 04:26:28;;;;;;;9.40;2.83;;;;;;;2.43;100.00;100185.78;5029045;28;20033;-79
2022/03/30 04:28:54;;;;;;;7.32;2.95;;;;;;;2.38;100.00;100191.44;5028212;28;20055;-79
2022/03/30 04:31:20;;;;;;;9.48;2.45;;;;;;;2.40;100.00;100193.94;5029406;28;20051;-79
2022/03/30 04:33:45;;;;;;;10.45;2.78;;;;;;;2.48;100.00;100195.00;4994722;28;20164;-80
2022/03/30 04:36:11;;;;;;;10.93;2.83;;;;;;;2.65;100.00;100187.53;5011351;28;20026;-79
2022/03/30 04:38:37;;;;;;;10.18;3.35;;;;;;;2.60;100.00;100189.69;5002384;28;20487;-78
2022/03/30 04:41:03;;;;;;;10.63;3.03;;;;;;;2.62;100.00;100190.41;5075140;23;20448;-88
2022/03/30 04:43:29;;;;;;;9.10;2.47;;;;;;;2.58;100.00;100189.00;5044962;28;20029;-88
2022/03/30 04:45:55;;;;;;;11.40;2.42;;;;;;;2.55;100.00;100176.88;5041550;28;20087;-88
2022/03/30 04:48:22;;;;;;;10.82;2.60;;;;;;;2.53;100.00;100194.66;5052647;28;20028;-88
2022/03/30 04:50:50;;;;;;;8.68;2.33;;;;;;;2.45;100.00;100195.25;5052427;28;20053;-87
2022/03/30 04:53:16;;;;;;;12.00;3.08;;;;;;;2.50;100.00;100200.13;5052760;28;20060;-88
2022/03/30 04:55:42;;;;;;;10.43;2.63;;;;;;;2.58;100.00;100210.09;5051466;22;20060;-77
2022/03/30 04:58:07;;;;;;;16.15;5.97;;;;;;;2.56;100.00;100204.94;5017728;28;20029;-78
2022/03/30 05:00:33;;;;;;;18.15;9.38;;;;;;;2.57;100.00;100203.13;5016848;28;20041;-80
2022/03/30 05:02:58;;;;;;;10.00;3.67;;;;;;;2.56;100.00;100206.72;5034925;28;20021;-78
2022/03/30 05:05:24;;;;;;;19.97;4.60;;;;;;;2.53;100.00;100205.19;5034898;28;20087;-79
2022/03/30 05:07:49;;;;;;;7.93;2.78;;;;;;;2.56;100.00;100209.38;5018020;28;20029;-78
2022/03/30 05:10:15;;;;;;;11.18;2.47;;;;;;;2.61;100.00;100204.56;5034210;28;20552;-78
2022/03/30 05:12:41;;;;;;;15.02;2.72;;;;;;;2.60;100.00;100202.88;5019675;28;20123;-79
2022/03/30 05:15:09;;;;;;;9.43;2.70;;;;;;;2.53;100.00;100210.44;5019532;28;20075;-79
2022/03/30 05:17:36;;;;;;;8.52;2.78;;;;;;;2.54;100.00;100207.69;5035804;28;20512;-77
2022/03/30 05:20:02;;;;;;;12.65;3.33;;;;;;;2.67;100.00;100201.41;5034547;28;20075;-79
2022/03/30 05:22:27;;;;;;;13.93;3.38;;;;;;;2.70;100.00;100201.16;5018699;28;20029;-79
2022/03/30 05:24:53;;;;;;;12.23;3.13;;;;;;;2.71;100.00;100198.38;5035125;28;20029;-79
2022/03/30 05:27:18;;;;;;;15.73;4.03;;;;;;;2.70;100.00;100188.81;5026701;28;20020;-78
2022/03/30 05:29:43;;;;;;;15.13;3.97;;;;;;;2.73;100.00;100203.53;5034613;28;20032;-79
2022/03/30 05:32:09;;;;;;;8.23;3.03;;;;;;;2.68;100.00;100200.47;5035565;28;20151;-79
2022/03/30 05:34:34;;;;;;;10.30;2.70;;;;;;;2.68;100.00;100197.81;5035134;28;20036;-79
2022/03/30 05:37:00;;;;;;;15.30;3.10;;;;;;;2.74;100.00;100203.44;5035115;28;20029;-79
2022/03/30 05:39:26;;;;;;;9.82;2.60;;;;;;;2.76;100.00;100200.66;5026619;28;20035;-77
2022/03/30 05:41:52;;;;;;;10.57;3.75;;;;;;;2.84;100.00;100200.03;5041379;28;20505;-79
2022/03/30 05:44:18;;;;;;;;;;;;;;;2.89;100.00;100205.78;5018788;28;20037;-79
2022/03/30 05:46:43;;;;;;;;;;;;;;;2.93;100.00;100202.75;5035234;28;19920;-76
2022/03/30 05:49:08;;;;;;;;;;;;;;;2.98;100.00;100204.19;5019394;28;19932;-77
2022/03/30 05:51:34;;;;;;;14.63;2.67;;;;;;;2.92;100.00;100194.97;5017931;28;19918;-79
2022/03/30 05:53:59;;;;;;;8.47;3.17;;;;;;;2.98;100.00;100199.75;5026283;28;20068;-80
2022/03/30 05:59:09;;;;;;;10.02;4.20;;;;;;;3.11;100.00;100200.41;5027257;28;20029;-79
2022/03/30 06:01:34;;;;;;;10.25;3.08;;;;;;;3.17;100.00;100194.59;5035149;28;20108;-81
2022/03/30 06:04:00;;;;;;;13.50;3.63;;;;;;;3.16;100.00;100194.72;5034962;28;20095;-77
2022/03/30 06:06:25;;;;;;;8.70;3.15;;;;;;;3.06;100.00;100188.53;5034640;28;20730;-76
2022/03/30 06:08:50;;;;;;;8.20;3.23;;;;;;;3.09;100.00;100188.28;5017697;28;20109;-77
2022/03/30 06:11:16;;;;;;;7.70;2.87;;;;;;;3.13;100.00;100184.44;5017009;28;20350;-77
2022/03/30 06:13:41;;;;;;;9.17;2.80;;;;;;;3.24;100.00;100186.19;5030768;28;20540;-78
2022/03/30 06:16:07;;;;;;;10.27;3.47;;;;;;;3.34;100.00;100185.25;5030900;28;20401;-78
2022/03/30 06:18:33;;;;;;;7.75;2.75;;;;;;;3.45;100.00;100187.00;5030593;28;20063;-77
2022/03/30 06:20:58;;;;;;;10.73;3.10;;;;;;;3.53;100.00;100183.69;5031731;28;20029;-76
2022/03/30 06:23:24;;;;;;;11.07;2.63;;;;;;;3.47;100.00;100173.69;5032817;28;20043;-77
2022/03/30 06:25:50;;;;;;;9.65;2.63;;;;;;;3.58;100.00;100186.78;5033081;28;20040;-77
2022/03/30 06:28:17;;;;;;;13.00;3.67;;;;;;;3.15;100.00;100162.22;5017257;28;20044;-79
2022/03/30 06:30:43;;;;;;;12.82;2.95;;;;;;;3.33;100.00;100172.22;5050083;28;20037;-77
2022/03/30 06:33:08;;;;;;;9.20;3.23;;;;;;;3.40;100.00;100176.00;5024540;28;20055;-77
2022/03/30 06:35:34;;;;;;;9.40;4.33;;;;;;;3.48;100.00;100181.47;5033094;28;20498;-78
2022/03/30 06:37:59;;;;;;;9.85;3.25;;;;;;;3.47;100.00;100177.16;5024330;28;20020;-78
2022/03/30 06:40:25;;;;;;;8.70;3.22;;;;;;;3.48;100.00;100181.47;5016067;28;20037;-77
2022/03/30 06:42:53;;;;;;;12.37;3.80;;;;;;;3.50;100.00;100184.81;5032601;28;20035;-77
2022/03/30 06:45:19;;;;;;;18.20;4.30;;;;;;;3.52;100.00;100182.88;5032865;28;20025;-79
2022/03/30 06:47:44;;;;;;;12.27;4.50;;;;;;;3.55;100.00;100193.16;5033805;28;20174;-81
2022/03/30 06:50:11;;;;;;;13.30;3.83;;;;;;;3.37;100.00;100182.38;5032769;28;20128;-79
2022/03/30 06:52:36;;;;;;;8.40;3.15;;;;;;;3.40;100.00;100183.09;5033463;28;20021;-80
2022/03/30 06:55:05;;;;;;;9.63;3.07;;;;;;;3.50;100.00;100181.34;5016947;28;20036;-80
2022/03/30 06:57:30;;;;;;;13.98;3.15;;;;;;;3.47;100.00;100178.97;5033400;28;20279;-79
2022/03/30 06:59:56;;;;;;;5.90;2.47;;;;;;;3.61;100.00;100188.34;5033181;28;20100;-80
2022/03/30 07:02:21;;;;;;;5.85;2.70;;;;;;;3.63;100.00;100175.81;5025012;28;20024;-79
2022/03/30 07:04:47;;;;;;;9.87;2.57;;;;;;;3.72;100.00;100170.63;5033293;28;20102;-80
2022/03/30 07:12:40;;;;;;;15.65;3.50;;;;;;;4.06;100.00;100177.41;5031313;28;20033;-81
2022/03/30 07:15:06;;;;;;;11.70;2.95;;;;;;;4.10;100.00;100176.19;5016808;28;20021;-78
2022/03/30 07:17:33;;;;;;;11.43;4.22;;;;;;;4.24;100.00;100181.09;5034345;28;20039;-79
2022/03/30 07:19:59;;;;;;;11.57;4.22;;;;;;;4.27;100.00;100167.59;5033899;28;20020;-79
2022/03/30 07:22:24;;;;;;;9.60;3.45;;;;;;;4.39;100.00;100168.31;5034098;28;20155;-78
2022/03/30 07:24:50;;;;;;;17.87;4.07;;;;;;;4.50;100.00;100170.81;5017634;28;20632;-77
2022/03/30 07:27:16;;;;;;;10.57;3.13;;;;;;;4.60;100.00;100163.72;5050658;28;20272;-76
2022/03/30 07:29:41;;;;;;;15.32;2.80;;;;;;;4.51;98.20;100143.41;5024453;28;20025;-77
2022/03/30 07:32:07;;;;;;;9.17;3.27;;;;;;;4.31;97.64;100131.13;5017688;28;20033;-76
2022/03/30 07:34:32;;;;;;;12.02;5.22;;;;;;;4.28;99.20;100136.69;5016976;28;20087;-76
2022/03/30 07:36:58;;;;;;;10.85;2.65;;;;;;;4.29;98.94;100146.31;5033774;28;20022;-79
2022/03/30 07:39:23;;;;;;;6.77;2.83;;;;;;;4.31;99.01;100147.00;5031891;28;20055;-77
2022/03/30 07:41:49;;;;;;;11.13;3.60;;;;;;;4.24;99.28;100154.66;5029851;28;20075;-80
2022/03/30 07:44:14;;;;;;;13.17;3.20;;;;;;;4.23;99.91;100161.72;5029608;28;20036;-78
2022/03/30 07:46:40;;;;;;;12.00;3.40;;;;;;;4.47;100.00;100175.53;5031100;28;20413;-79
2022/03/30 07:49:06;;;;;;;12.68;2.88;;;;;;;4.84;100.00;100188.94;5013287;28;20024;-80
2022/03/30 07:51:31;;;;;;;9.70;3.20;;;;;;;5.02;99.97;100192.56;5030245;28;20394;-77
2022/03/30 07:53:57;;;;;;;9.17;3.00;;;;;;;5.02;99.27;100171.38;5030384;28;20040;-76
2022/03/30 07:56:23;;;;;;;4.67;2.80;;;;;;;4.72;97.15;100134.50;5029788;28;20294;-77
2022/03/30 07:58:49;;;;;;;13.52;3.50;;;;;;;4.70;95.71;100125.88;5028482;28;20094;-78
2022/03/30 08:01:17;;;;;;;12.70;3.17;;;;;;;4.41;94.55;100105.56;5011164;28;20029;-78
2022/03/30 08:03:44;;;;;;;12.27;3.67;;;;;;;4.29;94.55;100102.22;5027424;28;20538;-79
2022/03/30 08:06:10;;;;;;;10.65;3.17;;;;;;;4.36;95.27;100123.66;5028371;28;20033;-80
2022/03/30 08:08:35;;;;;;;9.43;3.70;;;;;;;4.26;95.37;100123.66;5029549;28;20637;-79
2022/03/30 08:11:01;;;;;;;10.18;3.25;;;;;;;4.23;95.99;100131.81;5031335;28;20033;-76
2022/03/30 08:13:26;;;;;;;5.70;2.63;;;;;;;4.32;96.59;100140.75;5022862;28;20139;-77
2022/03/30 08:15:51;;;;;;;10.10;3.60;;;;;;;4.50;96.38;100146.22;5031185;28;20106;-77
2022/03/30 08:18:17;;;;;;;8.67;3.57;;;;;;;4.64;95.77;100154.56;5031954;28;20378;-79
2022/03/30 08:23:26;;;;;;;14.70;4.13;;;;;;;6.09;90.05;100127.88;5053484;28;20090;-78
2022/03/30 08:25:52;;;;;;;17.65;3.28;;;;;;;6.03;86.76;100068.31;5035019;28;20052;-80
2022/03/30 08:28:17;;;;;;;12.40;3.03;;;;;;;5.25;86.44;100039.59;5035282;28;20032;-79
2022/03/30 08:30:42;;;;;;;11.80;2.80;;;;;;;7.05;85.09;100122.78;5047857;28;20059;-80
2022/03/30 08:33:08;;;;;;;7.37;2.77;;;;;;;8.15;79.51;100045.91;5031013;28;20045;-79
2022/03/30 08:35:35;;;;;;;8.07;2.97;;;;;;;8.86;74.39;99967.25;5031066;28;20044;-80
2022/03/30 08:38:00;;;;;;;9.93;2.87;;;;;;;8.64;70.40;99817.13;5014026;28;20021;-78
2022/03/30 08:40:26;;;;;;;8.67;2.80;;;;;;;8.65;69.10;99845.38;5029882;28;20067;-77
2022/03/30 08:42:53;;;;;;;9.33;2.83;;;;;;;9.83;66.44;99833.66;5046915;28;20036;-78
2022/03/30 08:45:19;;;;;;;9.50;2.55;;;;;;;10.23;63.35;99746.25;5015089;28;20376;-78
2022/03/30 08:47:46;;;;;;;6.45;3.13;;;;;;;10.87;60.78;99724.28;5031541;28;20051;-78
2022/03/30 08:50:12;;;;;;;6.47;2.50;;;;;;;11.75;57.28;99653.50;5015253;28;20562;-77
2022/03/30 08:52:38;;;;;;;11.52;2.63;;;;;;;11.48;54.65;99491.31;5031712;28;20025;-77
2022/03/30 08:55:04;;;;;;;5.20;2.00;;;;;;;12.19;54.06;99598.78;5016763;28;20048;-78
2022/03/30 08:57:29;;;;;;;;;;;;;;;11.89;55.29;99654.41;5023705;28;20393;-78
2022/03/30 08:59:59;;;;;;;11.85;3.13;;;;;;;12.75;52.10;99538.75;5015383;28;19919;-78
2022/03/30 09:02:40;;;;;;;6.25;2.03;;;;;;;12.44;51.69;99459.88;5015075;28;20190;-78
2022/03/30 09:05:13;;;;;;;6.57;2.70;;;;;;;12.06;52.43;99493.56;5032838;28;20048;-79
2022/03/30 09:07:40;;;;;;;10.35;1.88;;;;;;;11.45;53.45;99507.72;5028694;28;20129;-78
2022/03/30 09:10:12;;;;;;;5.53;1.85;;;;;;;9.65;54.68;99368.44;5049254;28;20017;-80
2022/03/30 09:12:38;;;;;;;6.55;2.50;;;;;;;9.62;56.77;99550.03;5031264;28;20033;-78
2022/03/30 09:15:05;;;;;;;3.47;1.55;;;;;;;9.54;56.69;99563.44;5031702;28;20456;-79
2022/03/30 09:17:37;;;;;;;9.15;3.35;;;;;;;9.04;56.21;99448.69;5015277;28;20068;-78
2022/03/30 09:20:04;;;;;;;4.55;1.63;;;;;;;8.49;56.33;99422.47;5027731;28;20059;-78
2022/03/30 09:22:31;;;;;;;5.97;1.20;;;;;;;7.66;58.06;99479.91;5015726;28;20482;-79
2022/03/30 09:24:56;;;;;;;2.20;1.10;;;;;;;7.53;58.66;99523.78;5048502;28;20055;-77
2022/03/30 09:27:23;;;;;;;7.63;1.57;;;;;;;7.65;59.33;99589.81;5015043;28;20535;-79
2022/03/30 09:29:49;;;;;;;5.70;1.60;;;;;;;7.28;59.49;99538.13;5031279;28;20072;-78
2022/03/30 09:32:15;;;;;;;10.00;2.67;;;;;;;7.33;60.59;99647.34;5014889;28;20020;-77
2022/03/30 09:34:49;;;;;;;2.50;1.30;;;;;;;7.43;60.83;99668.41;5031619;28;20090;-79
2022/03/30 09:37:15;;;;;;;2.15;1.73;;;;;;;7.32;61.07;99680.19;5032099;28;20041;-79
2022/03/30 09:39:43;;;;;;;4.25;1.35;;;;;;;7.44;60.73;99673.53;5040105;28;20025;-78
2022/03/30 09:42:10;;;;;;;6.38;2.65;;;;;;;7.37;60.21;99622.94;5017940;28;20033;-79
2022/03/30 09:44:52;;;;;;;4.70;1.67;;;;;;;7.76;60.06;99680.59;5031874;28;20055;-77
2022/03/30 09:47:19;;;;;;;9.95;1.80;;;;;;;8.32;59.54;99723.09;5046434;28;20029;-77
2022/03/30 09:49:49;;;;;;;5.10;1.38;;;;;;;9.53;57.51;99753.66;5031111;28;20021;-78
2022/03/30 09:52:17;;;;;;;9.90;2.35;;;;;;;11.19;54.55;99733.63;5018986;28;20120;-78
2022/03/30 09:54:53;;;;;;;5.30;1.77;;;;;;;10.85;51.97;99470.00;5031658;28;20024;-78
2022/03/30 09:57:34;;;;;;;3.22;1.20;;;;;;;10.48;51.52;99427.44;5031314;28;20044;-80
2022/03/30 10:00:12;;;;;;;7.03;1.90;;;;;;;9.86;52.05;99396.13;5015187;28;20086;-78
2022/03/30 10:02:42;;;;;;;9.93;1.65;;;;;;;9.02;53.47;99380.66;5012169;28;20044;-77
2022/03/30 10:05:10;;;;;;;8.65;2.58;;;;;;;9.13;54.92;99539.09;5027730;28;20483;-77
2022/03/30 10:07:36;;;;;;;6.10;1.88;;;;;;;9.71;55.52;99644.03;5023380;28;20075;-79
2022/03/30 10:10:04;;;;;;;7.20;1.20;;;;;;;10.04;54.14;99607.13;5027919;28;20017;-78
2022/03/30 10:12:29;;;;;;;13.23;3.15;;;;;;;9.92;53.92;99560.63;5014962;28;20055;-80
2022/03/30 10:14:56;;;;;;;7.70;1.80;;;;;;;9.30;55.78;99594.69;5032482;28;20028;-79
2022/03/30 10:17:23;;;;;;;6.03;1.52;;;;;;;8.51;56.71;99556.13;5017932;28;20083;-79
2022/03/30 10:19:52;;;;;;;5.88;1.80;;;;;;;8.63;55.94;99541.41;5034133;28;20108;-78
2022/03/30 10:22:46;;;;;;;7.25;2.03;;;;;;;8.52;56.82;99571.06;5018394;28;20028;-79
2022/03/30 10:25:36;;;;;;;5.63;1.60;;;;;;;8.72;57.73;99660.06;5029203;28;20033;-80
2022/03/30 10:28:14;;;;;;;8.95;1.80;;;;;;;8.61;59.18;99727.00;5017279;28;20061;-78
2022/03/30 10:30:43;;;;;;;6.20;2.00;;;;;;;8.55;60.81;99791.56;5038246;28;20043;-79
2022/03/30 10:33:09;;;;;;;7.40;1.98;;;;;;;8.31;61.54;99797.72;5035253;28;20056;-79
2022/03/30 10:35:40;;;;;;;9.35;2.35;;;;;;;7.80;61.52;99728.94;5034087;28;20082;-78
2022/03/30 10:38:05;;;;;;;7.82;2.58;;;;;;;7.88;61.36;99747.50;5026331;28;20039;-79
2022/03/30 10:40:31;;;;;;;7.15;1.80;;;;;;;8.12;60.78;99748.44;5016774;28;20024;-78
2022/03/30 10:42:58;;;;;;;5.60;2.00;;;;;;;8.09;60.97;99748.78;5016517;28;20129;-79
2022/03/30 10:45:38;;;;;;;7.65;2.38;;;;;;;8.17;60.78;99738.09;5017080;28;20025;-80
2022/03/30 10:48:17;;;;;;;8.43;2.85;;;;;;;8.28;60.31;99720.97;5026727;28;20320;-79
2022/03/30 10:51:07;;;;;;;9.25;2.60;;;;;;;8.28;59.42;99665.94;5034130;28;20028;-79
2022/03/30 10:53:34;;;;;;;8.95;3.00;;;;;;;8.18;59.37;99657.38;5017284;28;20674;-77
2022/03/30 10:56:05;;;;;;;10.95;2.47;;;;;;;8.08;60.42;99700.13;5016186;28;20037;-78
2022/03/30 10:58:31;;;;;;;4.60;2.17;;;;;;;8.17;60.58;99720.34;5032180;28;20037;-78
2022/03/30 11:01:14;;;;;;;6.90;3.00;;;;;;;8.49;60.58;99765.63;5015737;28;20028;-77
2022/03/30 11:04:06;;;;;;;10.35;3.03;;;;;;;9.00;59.67;99758.88;5032514;28;20033;-77
2022/03/30 11:06:39;;;;;;;8.43;3.35;;;;;;;8.53;60.45;99741.16;5009493;28;20083;-78
2022/03/30 11:09:11;;;;;;;7.40;2.40;;;;;;;8.70;60.61;99768.50;5008111;28;20029;-78
2022/03/30 11:11:44;;;;;;;5.88;2.28;;;;;;;8.85;60.85;99804.03;5023904;23;20091;-81
2022/03/30 11:14:32;;;;;;;7.10;2.38;;;;;;;8.66;60.12;99703.34;5068659;28;20044;-84
2022/03/30 11:17:03;;;;;;;3.47;2.25;;;;;;;8.75;61.15;99795.44;5035130;28;20040;-84
2022/03/30 11:19:51;;;;;;;8.90;2.40;;;;;;;8.34;59.93;99686.53;5046068;28;20028;-81
2022/03/30 11:22:23;;;;;;;8.05;2.53;;;;;;;8.58;59.55;99698.09;5032834;28;20128;-87
2022/03/30 11:25:09;;;;;;;5.00;2.47;;;;;;;8.57;60.25;99731.84;5051079;28;20056;-85
2022/03/30 11:27:36;;;;;;;7.28;1.90;;;;;;;7.71;60.41;99607.72;5031115;28;20040;-84
2022/03/30 11:30:29;;;;;;;7.97;2.22;;;;;;;7.77;62.22;99753.16;5046639;28;20472;-84
2022/03/30 11:33:01;;;;;;;7.25;3.08;;;;;;;8.58;62.77;99886.97;5050588;28;20032;-85
2022/03/30 11:35:39;;;;;;;4.43;2.00;;;;;;;9.11;61.40;99881.94;5066066;28;20039;-85
2022/03/30 11:38:15;;;;;;;7.65;2.60;;;;;;;9.44;58.30;99731.56;5065041;28;20078;-86
2022/03/30 11:40:44;;;;;;;5.32;2.25;;;;;;;8.66;58.63;99634.16;5039521;28;20497;-86